Terminal Aerodrome Forecast
Issued by NWS Boston, MA

Home | Current Version | Previous Version | Text Only | Print | Product List | Glossary On
Versions: 1 2 3 4 5 6 7 8 9 10 11 12 13 14 15 16 17 18 19 20 21 22 23 24 25 26 27 28 29 30 31 32 33 34 35 36 37 38 39 40 41 42
000
FTUS41 KBOX 040542
TAFBDL
TAF
KBDL 040542Z 0406/0512 21009KT P6SM -RA OVC010
     FM040700 21009KT P6SM -RA OVC015
     FM040800 22008KT P6SM OVC015
     FM041300 23006KT P6SM OVC025
     FM041500 25006KT P6SM OVC050
     FM050300 30004KT 2SM BR OVC250
     FM050900 32005KT 1/2SM FZFG OVC080=

USA.gov is the U.S. government's official web portal to all federal, state and local government web resources and services.